Time;durP1;ratioP1;P1;durP2;ratioP2;P2;SDS_P1;SDS_P2;PMS_P1;PMS_P2;Temp;Humidity;BMP_temperature;BMP_pressure;BME280_temperature;BME280_humidity;BME280_pressure;Samples;Min_cycle;Max_cycle;Signal;HPM_P1;HPM_P2
2021/05/30 00:00:48;;;;;;;0.40;0.20;;;;;;;14.02;74.08;101191.31;5020386;28;20506;-50
2021/05/30 00:03:16;;;;;;;0.30;0.20;;;;;;;13.80;74.92;101180.34;5018108;28;20832;-51
2021/05/30 00:05:44;;;;;;;0.30;0.20;;;;;;;13.98;74.80;101183.41;5022368;28;20928;-49
2021/05/30 00:08:13;;;;;;;0.40;0.37;;;;;;;13.62;75.84;101187.06;5024382;28;20535;-49
2021/05/30 00:10:40;;;;;;;0.40;0.20;;;;;;;13.64;75.87;101190.56;5022001;28;20448;-49
2021/05/30 00:13:07;;;;;;;0.40;0.20;;;;;;;13.48;77.35;101183.00;5018882;28;20451;-49
2021/05/30 00:15:34;;;;;;;0.30;0.20;;;;;;;13.17;78.24;101166.88;5022110;28;20488;-49
2021/05/30 00:18:00;;;;;;;0.40;0.20;;;;;;;13.00;78.45;101176.16;5023995;28;20467;-49
2021/05/30 00:20:27;;;;;;;0.30;0.20;;;;;;;12.79;80.22;101166.00;5020859;28;20530;-49
2021/05/30 00:22:54;;;;;;;0.40;0.20;;;;;;;12.93;79.29;101177.22;5025102;28;20459;-49
2021/05/30 00:25:20;;;;;;;0.40;0.30;;;;;;;12.89;79.36;101170.22;5021709;28;20827;-48
2021/05/30 00:27:47;;;;;;;1.17;1.17;;;;;;;12.77;79.77;101174.97;5017663;28;20492;-50
2021/05/30 00:30:14;;;;;;;0.30;0.20;;;;;;;12.60;81.31;101178.88;5020713;28;20957;-49
2021/05/30 00:32:41;;;;;;;0.30;0.20;;;;;;;12.67;81.11;101179.63;5024425;28;20854;-49
2021/05/30 00:35:08;;;;;;;0.30;0.20;;;;;;;12.51;82.00;101176.44;5021858;28;20452;-49
2021/05/30 00:37:35;;;;;;;0.30;0.20;;;;;;;12.43;82.32;101176.59;5017457;28;20452;-50
2021/05/30 00:40:03;;;;;;;0.40;0.20;;;;;;;12.34;82.72;101174.16;5020060;28;20448;-49
2021/05/30 00:42:29;;;;;;;0.40;0.20;;;;;;;12.23;83.14;101176.16;5024657;28;20449;-49
2021/05/30 00:44:56;;;;;;;0.30;0.20;;;;;;;12.25;83.40;101178.78;5022444;28;20455;-49
2021/05/30 00:47:23;;;;;;;0.30;0.20;;;;;;;12.11;83.45;101181.75;5014746;28;20453;-49
2021/05/30 00:49:49;;;;;;;0.30;0.20;;;;;;;12.25;83.65;101184.13;5022927;28;20451;-50
2021/05/30 00:52:16;;;;;;;0.30;0.20;;;;;;;12.17;84.05;101186.94;5025621;28;20449;-49
2021/05/30 00:54:43;;;;;;;0.30;0.20;;;;;;;12.09;84.23;101181.78;5023513;28;20948;-48
2021/05/30 00:57:10;;;;;;;0.40;0.30;;;;;;;12.20;84.31;101185.97;5017212;28;20509;-49
2021/05/30 00:59:38;;;;;;;0.30;0.20;;;;;;;12.27;84.05;101179.63;5021105;28;20530;-48
2021/05/30 01:02:05;;;;;;;0.40;0.30;;;;;;;12.00;85.27;101181.94;5028147;28;20502;-50
2021/05/30 01:04:32;;;;;;;0.43;0.43;;;;;;;11.84;86.30;101191.16;5027847;28;20527;-52
2021/05/30 01:07:00;;;;;;;0.30;0.20;;;;;;;12.00;85.63;101186.41;5027441;28;20809;-49
2021/05/30 01:09:28;;;;;;;0.30;0.20;;;;;;;11.90;86.35;101188.34;5027441;28;20570;-49
2021/05/30 01:11:56;;;;;;;0.30;0.20;;;;;;;11.77;86.40;101181.47;5021854;28;20478;-50
2021/05/30 01:14:23;;;;;;;0.80;0.60;;;;;;;11.85;87.12;101179.59;5020722;28;20448;-49
2021/05/30 01:16:50;;;;;;;0.30;0.20;;;;;;;11.60;87.64;101188.91;5026125;28;20470;-50
2021/05/30 01:19:20;;;;;;;0.30;0.20;;;;;;;11.80;87.05;101185.03;5027618;28;20537;-51
2021/05/30 01:21:47;;;;;;;0.30;0.30;;;;;;;11.91;85.76;101181.25;5023166;28;20502;-49
2021/05/30 01:24:15;;;;;;;0.40;0.40;;;;;;;11.82;86.13;101185.88;5005271;28;20793;-48
2021/05/30 01:26:42;;;;;;;0.30;0.20;;;;;;;11.52;87.90;101181.09;5023405;28;20506;-48
2021/05/30 01:29:09;;;;;;;0.30;0.20;;;;;;;11.77;86.92;101176.16;5020609;28;20499;-50
2021/05/30 01:31:36;;;;;;;0.30;0.20;;;;;;;11.60;87.51;101173.81;5024688;28;20457;-48
2021/05/30 01:34:03;;;;;;;0.50;0.47;;;;;;;11.41;87.92;101173.28;5027253;28;20448;-49
2021/05/30 01:36:31;;;;;;;0.70;0.70;;;;;;;11.48;88.36;101184.69;5023806;28;20452;-48
2021/05/30 01:38:58;;;;;;;0.30;0.20;;;;;;;11.60;88.02;101181.81;5020489;28;20533;-48
2021/05/30 01:41:25;;;;;;;0.30;0.20;;;;;;;11.21;89.37;101175.41;5023054;28;20453;-49
2021/05/30 01:43:52;;;;;;;0.30;0.20;;;;;;;11.41;89.45;101183.94;5027265;28;20453;-49
2021/05/30 01:46:18;;;;;;;0.30;0.20;;;;;;;11.17;89.34;101192.31;5025018;28;20505;-49
2021/05/30 01:48:45;;;;;;;0.30;0.20;;;;;;;11.09;90.16;101189.78;5019654;28;20538;-50
2021/05/30 01:51:12;;;;;;;0.30;0.20;;;;;;;10.98;91.05;101192.63;5033449;28;20452;-48
2021/05/30 01:53:49;;;;;;;0.30;0.20;;;;;;;11.01;91.44;101197.03;5020079;28;20455;-49
2021/05/30 01:59:03;;;;;;;0.30;0.20;;;;;;;11.42;89.98;101187.47;5009052;28;20467;-49
2021/05/30 02:01:35;;;;;;;0.30;0.20;;;;;;;11.24;90.66;101191.34;5019678;28;20453;-49
2021/05/30 02:04:04;;;;;;;0.40;0.30;;;;;;;11.42;89.54;101188.34;5025090;28;20968;-48
2021/05/30 02:06:32;;;;;;;0.30;0.20;;;;;;;11.75;89.18;101184.19;5026934;28;20484;-50
2021/05/30 02:08:59;;;;;;;0.33;0.20;;;;;;;11.60;88.47;101191.56;5022507;28;20499;-49
2021/05/30 02:11:27;;;;;;;0.30;0.20;;;;;;;11.42;89.11;101179.47;5019321;28;20449;-48
2021/05/30 02:13:57;;;;;;;0.30;0.20;;;;;;;11.08;90.78;101179.16;5023931;28;20460;-49
2021/05/30 02:16:23;;;;;;;0.30;0.20;;;;;;;11.12;90.87;101186.22;5026790;28;20448;-49
2021/05/30 02:18:50;;;;;;;0.40;0.30;;;;;;;10.74;93.77;101187.69;5023362;28;20472;-48
2021/05/30 02:21:16;;;;;;;0.30;0.20;;;;;;;10.84;92.14;101196.41;5013326;28;20459;-49
2021/05/30 02:23:43;;;;;;;0.30;0.20;;;;;;;10.87;91.64;101194.56;5028065;28;20509;-49
2021/05/30 02:26:10;;;;;;;0.30;0.20;;;;;;;10.58;94.03;101202.97;5020095;28;20447;-48
2021/05/30 02:28:37;;;;;;;0.30;0.20;;;;;;;11.02;92.18;101203.22;5022696;28;20535;-49
2021/05/30 02:31:04;;;;;;;0.30;0.20;;;;;;;10.65;92.65;101190.47;5027120;28;20964;-48
2021/05/30 02:33:32;;;;;;;0.30;0.20;;;;;;;10.81;92.92;101202.63;5024815;28;20982;-49
2021/05/30 02:35:58;;;;;;;0.30;0.20;;;;;;;11.11;91.32;101203.09;5019501;28;20516;-48
2021/05/30 02:38:25;;;;;;;0.30;0.20;;;;;;;10.82;91.06;101196.41;5021096;28;20560;-47
2021/05/30 02:40:52;;;;;;;0.30;0.20;;;;;;;11.25;90.63;101199.28;5025796;28;20509;-48
2021/05/30 02:43:20;;;;;;;0.30;0.20;;;;;;;10.79;94.91;101204.44;5024942;28;20873;-48
2021/05/30 02:45:46;;;;;;;0.30;0.20;;;;;;;10.83;93.38;101199.97;5019338;28;20589;-48
2021/05/30 02:48:13;;;;;;;0.30;0.20;;;;;;;11.04;91.78;101204.06;5020192;28;20492;-48
2021/05/30 02:50:40;;;;;;;0.30;0.20;;;;;;;11.26;91.61;101194.84;5031533;28;20444;-48
2021/05/30 02:53:06;;;;;;;0.30;0.20;;;;;;;11.01;92.09;101201.47;5020361;28;20445;-47
2021/05/30 02:55:33;;;;;;;0.30;0.20;;;;;;;11.06;92.39;101208.47;5025843;28;20980;-49
2021/05/30 02:58:00;;;;;;;0.30;0.20;;;;;;;11.11;91.29;101203.09;5025277;28;20565;-48
2021/05/30 03:00:26;;;;;;;0.30;0.20;;;;;;;11.06;91.47;101205.78;5019242;28;20489;-49
2021/05/30 03:02:53;;;;;;;2.00;1.17;;;;;;;11.12;91.73;101196.84;5019473;28;20457;-48
2021/05/30 03:05:20;;;;;;;0.30;0.20;;;;;;;10.88;91.66;101203.44;5025664;28;20534;-48
2021/05/30 03:07:47;;;;;;;0.40;0.40;;;;;;;10.93;92.05;101207.75;5025127;28;20839;-47
2021/05/30 03:10:14;;;;;;;0.30;0.20;;;;;;;10.77;93.00;101202.69;5018818;28;20541;-48
2021/05/30 03:12:40;;;;;;;0.30;0.20;;;;;;;10.74;93.48;101211.63;5019613;28;20953;-48
2021/05/30 03:15:07;;;;;;;0.30;0.20;;;;;;;10.61;93.04;101205.59;5025381;28;20954;-48
2021/05/30 03:17:34;;;;;;;0.30;0.20;;;;;;;10.54;93.51;101208.34;5021499;28;20455;-48
2021/05/30 03:20:01;;;;;;;2.33;2.13;;;;;;;10.53;93.47;101207.47;5025380;28;20822;-48
2021/05/30 03:22:27;;;;;;;0.30;0.20;;;;;;;10.47;93.43;101212.88;5024602;28;20468;-48
2021/05/30 03:24:54;;;;;;;0.30;0.20;;;;;;;10.06;96.29;101205.38;5005731;28;20832;-48
2021/05/30 03:27:21;;;;;;;0.30;0.20;;;;;;;10.17;95.54;101214.13;5018549;28;20518;-50
2021/05/30 03:29:48;;;;;;;0.30;0.20;;;;;;;10.67;93.25;101213.47;5018790;28;20996;-49
2021/05/30 03:32:15;;;;;;;0.30;0.20;;;;;;;10.30;93.65;101210.44;5018534;28;20548;-48
2021/05/30 03:34:41;;;;;;;0.30;0.20;;;;;;;10.18;94.15;101210.56;5025380;28;20503;-48
2021/05/30 03:37:08;;;;;;;0.40;0.40;;;;;;;10.01;95.41;101209.88;5025072;28;20861;-48
2021/05/30 03:39:39;;;;;;;0.30;0.20;;;;;;;9.78;96.35;101221.63;5018873;28;20464;-47
2021/05/30 03:42:09;;;;;;;0.30;0.20;;;;;;;9.92;95.78;101218.81;5004038;28;20469;-47
2021/05/30 03:44:36;;;;;;;0.30;0.20;;;;;;;9.78;95.30;101220.75;5020395;28;20459;-47
2021/05/30 03:47:03;;;;;;;0.30;0.20;;;;;;;9.69;94.82;101213.75;5018083;28;20506;-50
2021/05/30 03:49:30;;;;;;;0.30;0.20;;;;;;;9.70;95.10;101220.81;5020871;28;20484;-48
2021/05/30 03:51:56;;;;;;;0.30;0.20;;;;;;;9.70;95.57;101219.94;5027791;28;20467;-47
2021/05/30 03:54:23;;;;;;;0.40;0.30;;;;;;;9.70;95.48;101219.94;5020962;28;20529;-50
2021/05/30 03:56:50;;;;;;;1.90;0.93;;;;;;;9.50;96.18;101221.00;5017733;28;20989;-47
2021/05/30 03:59:16;;;;;;;0.60;0.60;;;;;;;9.39;96.88;101214.91;5022351;28;20464;-47
2021/05/30 04:01:43;;;;;;;0.30;0.20;;;;;;;9.75;95.83;101219.00;5025211;28;20574;-47
2021/05/30 04:04:10;;;;;;;0.30;0.20;;;;;;;9.61;95.91;101217.38;5020910;28;20456;-47
2021/05/30 04:06:36;;;;;;;0.30;0.20;;;;;;;9.48;97.04;101216.63;5018095;28;20503;-49
2021/05/30 04:09:03;;;;;;;0.30;0.20;;;;;;;9.41;97.05;101217.56;5022594;28;20496;-48
2021/05/30 04:11:30;;;;;;;0.30;0.20;;;;;;;9.37;97.27;101224.66;5024718;28;20471;-48
2021/05/30 04:13:57;;;;;;;0.30;0.20;;;;;;;9.50;97.83;101223.66;5020662;28;20889;-48
2021/05/30 04:16:23;;;;;;;0.30;0.20;;;;;;;9.57;97.14;101218.28;5016896;28;20448;-48
2021/05/30 04:18:50;;;;;;;3.90;1.90;;;;;;;9.41;98.26;101218.44;5025920;28;20472;-50
2021/05/30 04:21:17;;;;;;;0.30;0.20;;;;;;;9.68;97.53;101211.97;5017765;28;20591;-47
2021/05/30 04:23:44;;;;;;;0.30;0.20;;;;;;;9.64;98.05;101212.03;5022264;28;20461;-47
2021/05/30 04:26:10;;;;;;;4.33;0.77;;;;;;;9.82;97.67;101218.94;5024737;28;20513;-47
2021/05/30 04:28:37;;;;;;;0.30;0.20;;;;;;;9.99;96.59;101214.31;5020061;28;20931;-48
2021/05/30 04:31:04;;;;;;;0.30;0.20;;;;;;;10.39;95.93;101214.75;5018145;28;20453;-49
2021/05/30 04:33:31;;;;;;;0.30;0.20;;;;;;;11.36;90.91;101212.38;5022526;28;20817;-49
2021/05/30 04:35:58;;;;;;;0.50;0.50;;;;;;;12.22;85.68;101202.84;5028407;28;20491;-48
2021/05/30 04:38:24;;;;;;;0.30;0.20;;;;;;;12.77;81.05;101209.66;5024751;28;20575;-49
2021/05/30 04:40:51;;;;;;;0.40;0.30;;;;;;;13.14;79.69;101204.31;5021313;28;20451;-49
2021/05/30 04:43:18;;;;;;;0.30;0.20;;;;;;;13.69;76.21;101222.50;5024844;28;20464;-48
2021/05/30 04:45:45;;;;;;;0.30;0.20;;;;;;;14.19;75.68;101214.91;5018712;28;20451;-48
2021/05/30 04:48:12;;;;;;;0.30;0.20;;;;;;;14.45;73.24;101212.38;5043043;23;20504;-51
2021/05/30 04:50:38;;;;;;;0.30;0.20;;;;;;;14.65;71.87;101213.56;5062710;28;20483;-50
2021/05/30 04:53:05;;;;;;;0.30;0.20;;;;;;;14.90;71.60;101213.69;5046891;28;20451;-51
2021/05/30 04:55:32;;;;;;;0.40;0.37;;;;;;;15.37;69.84;101214.84;5054414;28;20504;-51
2021/05/30 04:57:59;;;;;;;0.30;0.20;;;;;;;15.40;69.68;101212.94;5054164;28;20512;-51
2021/05/30 05:00:26;;;;;;;0.40;0.20;;;;;;;15.66;69.10;101216.56;5040788;28;20535;-51
2021/05/30 05:02:53;;;;;;;0.40;0.30;;;;;;;15.66;68.70;101222.78;5039175;28;20456;-51
2021/05/30 05:05:20;;;;;;;0.63;0.60;;;;;;;16.41;67.83;101212.00;5042990;28;20446;-51
2021/05/30 05:07:46;;;;;;;0.40;0.20;;;;;;;16.52;66.67;101214.28;5041145;28;20907;-52
2021/05/30 05:10:13;;;;;;;0.40;0.40;;;;;;;17.19;63.45;101208.97;5046787;28;20497;-50
2021/05/30 05:12:40;;;;;;;0.40;0.20;;;;;;;16.63;64.61;101203.16;5047177;28;20450;-50
2021/05/30 05:15:08;;;;;;;0.40;0.20;;;;;;;16.41;65.54;101214.69;5040922;28;20471;-50
2021/05/30 05:17:34;;;;;;;0.50;0.50;;;;;;;15.93;67.55;101214.72;5040402;28;20455;-50
2021/05/30 05:20:01;;;;;;;0.40;0.30;;;;;;;16.19;67.08;101213.78;5046660;28;20951;-51
2021/05/30 05:22:27;;;;;;;0.37;0.27;;;;;;;16.67;66.69;101210.16;5047255;28;20763;-50
2021/05/30 05:25:00;;;;;;;0.40;0.20;;;;;;;17.00;64.69;101205.31;5041635;28;20453;-51
2021/05/30 05:27:27;;;;;;;0.40;0.40;;;;;;;16.32;67.74;101215.06;5040087;28;20824;-50
2021/05/30 05:29:54;;;;;;;0.40;0.20;;;;;;;16.33;67.73;101213.25;5045564;28;20915;-50
2021/05/30 05:32:21;;;;;;;0.40;0.20;;;;;;;17.02;65.85;101214.16;5046034;28;20481;-51
2021/05/30 05:34:47;;;;;;;0.40;0.20;;;;;;;17.80;63.78;101214.44;5041904;28;20478;-51
2021/05/30 05:37:14;;;;;;;0.40;0.20;;;;;;;17.13;65.13;101211.88;5039948;28;20456;-50
2021/05/30 05:39:41;;;;;;;0.40;0.30;;;;;;;17.74;64.56;101217.44;5045606;28;20547;-51
2021/05/30 05:42:08;;;;;;;0.40;0.20;;;;;;;18.01;63.04;101215.34;5046886;28;20531;-51
2021/05/30 05:44:35;;;;;;;0.40;0.20;;;;;;;17.54;64.51;101212.84;5041499;28;20494;-51
2021/05/30 05:47:04;;;;;;;0.40;0.20;;;;;;;16.89;66.76;101213.78;5039218;28;20542;-52
2021/05/30 05:49:33;;;;;;;0.40;0.30;;;;;;;16.92;67.24;101210.09;5023029;28;20487;-51
2021/05/30 05:52:00;;;;;;;0.40;0.20;;;;;;;17.53;64.55;101218.28;5046876;28;20463;-51
2021/05/30 05:54:44;;;;;;;1.30;1.30;;;;;;;17.27;65.96;101212.22;5045858;28;20450;-51
2021/05/30 05:57:10;;;;;;;0.40;0.20;;;;;;;17.21;67.18;101211.59;5027937;28;20925;-51
2021/05/30 05:59:37;;;;;;;0.50;0.50;;;;;;;16.98;68.15;101217.88;5046179;28;20470;-50
2021/05/30 06:02:04;;;;;;;1.10;1.03;;;;;;;17.41;67.02;101217.03;5039886;28;20463;-50
2021/05/30 06:04:30;;;;;;;0.40;0.20;;;;;;;16.68;68.80;101220.84;5040584;28;20869;-51
2021/05/30 06:06:57;;;;;;;0.40;0.40;;;;;;;17.25;67.97;101221.25;5047018;28;20448;-51
2021/05/30 06:09:24;;;;;;;0.40;0.20;;;;;;;17.59;67.42;101226.13;5046091;28;20991;-51
2021/05/30 06:11:50;;;;;;;0.40;0.20;;;;;;;17.08;67.63;101224.66;5039923;28;20509;-51
2021/05/30 06:14:18;;;;;;;0.40;0.20;;;;;;;17.19;67.92;101222.41;5040100;28;20475;-50
2021/05/30 06:16:44;;;;;;;0.40;0.20;;;;;;;17.42;66.89;101224.16;5046819;28;21029;-51
2021/05/30 06:19:11;;;;;;;6.93;0.90;;;;;;;17.44;66.41;101216.91;5046118;28;20471;-51
2021/05/30 06:21:39;;;;;;;0.40;0.30;;;;;;;17.71;66.88;101223.81;5039605;28;20501;-51
2021/05/30 06:24:06;;;;;;;0.40;0.30;;;;;;;18.10;63.72;101220.31;5039838;28;20479;-50
2021/05/30 06:26:32;;;;;;;0.40;0.20;;;;;;;18.06;64.18;101221.38;5045746;28;20451;-49
2021/05/30 06:28:59;;;;;;;0.40;0.20;;;;;;;18.51;63.09;101226.50;5046053;28;20516;-50
2021/05/30 06:31:25;;;;;;;0.40;0.30;;;;;;;18.68;61.53;101230.25;5039232;28;20451;-51
2021/05/30 06:33:52;;;;;;;0.40;0.20;;;;;;;18.54;61.38;101225.50;5039184;28;20471;-51
2021/05/30 06:36:19;;;;;;;0.50;0.30;;;;;;;18.27;62.01;101223.13;5027124;28;20536;-51
2021/05/30 06:38:45;;;;;;;0.40;0.20;;;;;;;18.51;62.96;101228.34;5039158;28;20525;-51
2021/05/30 06:41:12;;;;;;;0.40;0.20;;;;;;;18.48;62.33;101223.94;5046066;28;20470;-51
2021/05/30 06:43:39;;;;;;;0.40;0.30;;;;;;;17.75;63.45;101232.63;5046087;28;20508;-51
2021/05/30 06:46:06;;;;;;;0.40;0.40;;;;;;;17.80;63.30;101238.66;5039906;28;20504;-51
2021/05/30 06:48:32;;;;;;;0.40;0.20;;;;;;;17.46;64.83;101240.06;5038090;28;20855;-51
2021/05/30 06:51:16;;;;;;;0.40;0.20;;;;;;;17.00;65.32;101235.72;5039964;28;20490;-52
2021/05/30 06:53:47;;;;;;;0.40;0.20;;;;;;;16.69;68.71;101236.03;5038789;28;20469;-51
2021/05/30 06:56:14;;;;;;;0.40;0.20;;;;;;;17.13;66.61;101236.06;5035596;28;20464;-52
2021/05/30 06:58:42;;;;;;;0.40;0.20;;;;;;;17.53;64.85;101237.13;5034951;28;20505;-51
2021/05/30 07:01:09;;;;;;;0.40;0.20;;;;;;;17.15;66.69;101240.47;5040550;28;20447;-51
2021/05/30 07:03:35;;;;;;;0.40;0.20;;;;;;;17.09;66.36;101243.38;5045136;28;20491;-52
2021/05/30 07:06:02;;;;;;;0.40;0.30;;;;;;;17.86;66.11;101245.59;5044379;28;20526;-52
2021/05/30 07:08:29;;;;;;;0.40;0.20;;;;;;;17.42;65.46;101246.53;5038654;28;20470;-51
2021/05/30 07:10:55;;;;;;;0.40;0.30;;;;;;;17.52;65.18;101235.38;5040227;28;20597;-52
2021/05/30 07:13:22;;;;;;;1.47;0.70;;;;;;;17.14;65.91;101245.91;5045419;28;20506;-51
2021/05/30 07:15:53;;;;;;;0.40;0.20;;;;;;;17.56;65.84;101243.25;5044840;28;20474;-51
2021/05/30 07:18:20;;;;;;;0.40;0.30;;;;;;;17.56;66.10;101248.63;5038286;28;20524;-52
2021/05/30 07:20:48;;;;;;;0.40;0.30;;;;;;;17.61;65.19;101252.00;5039139;28;20474;-52
2021/05/30 07:23:16;;;;;;;0.40;0.20;;;;;;;16.98;66.95;101259.06;5045304;28;20522;-50
2021/05/30 07:25:43;;;;;;;0.40;0.20;;;;;;;17.17;67.19;101245.78;5045505;28;20446;-51
2021/05/30 07:28:09;;;;;;;2.40;2.40;;;;;;;16.93;67.13;101253.00;5038661;28;21045;-51
2021/05/30 07:30:36;;;;;;;0.40;0.20;;;;;;;17.17;68.42;101259.22;5036952;28;20549;-50
2021/05/30 07:33:06;;;;;;;0.40;0.30;;;;;;;16.88;68.18;101249.63;5044959;28;20510;-53
2021/05/30 07:35:34;;;;;;;0.40;0.30;;;;;;;16.89;67.75;101262.13;5044949;28;20947;-53
2021/05/30 07:38:01;;;;;;;0.97;0.97;;;;;;;17.02;67.51;101251.78;5039749;28;20864;-53
2021/05/30 07:40:28;;;;;;;3.03;0.63;;;;;;;17.73;66.51;101261.41;5037618;28;20865;-53
2021/05/30 07:42:55;;;;;;;0.40;0.20;;;;;;;16.94;66.50;101260.13;5043238;28;20456;-52
2021/05/30 07:45:23;;;;;;;1.33;1.23;;;;;;;17.04;67.03;101245.41;5044749;28;20454;-51
2021/05/30 07:47:50;;;;;;;0.40;0.20;;;;;;;16.92;67.79;101253.94;5027263;28;20471;-51
2021/05/30 07:50:18;;;;;;;0.40;0.20;;;;;;;17.28;66.42;101253.41;5028118;28;20492;-51
2021/05/30 07:52:46;;;;;;;0.40;0.20;;;;;;;16.93;67.47;101249.44;5042173;28;20448;-50
2021/05/30 07:55:14;;;;;;;1.57;1.47;;;;;;;17.32;66.99;101255.91;5044590;28;20933;-51
2021/05/30 07:57:40;;;;;;;2.30;0.70;;;;;;;17.24;66.49;101251.75;5024707;28;20459;-51
2021/05/30 08:00:11;;;;;;;0.40;0.30;;;;;;;17.27;66.18;101247.16;5044657;28;20988;-52
2021/05/30 08:02:38;;;;;;;1.47;0.70;;;;;;;17.61;66.77;101246.63;5041118;28;20524;-51
2021/05/30 08:05:10;;;;;;;0.40;0.20;;;;;;;17.20;66.22;101256.41;5037564;28;20450;-51
2021/05/30 08:07:38;;;;;;;0.40;0.20;;;;;;;17.18;66.43;101245.72;5037870;28;20443;-51
2021/05/30 08:10:08;;;;;;;0.40;0.20;;;;;;;17.41;66.07;101242.09;5045136;28;20503;-51
2021/05/30 08:12:35;;;;;;;0.40;0.20;;;;;;;17.94;65.11;101252.38;5043862;28;20458;-51
2021/05/30 08:15:02;;;;;;;2.70;2.60;;;;;;;17.70;65.21;101248.97;5037874;28;20451;-52
2021/05/30 08:17:29;;;;;;;0.47;0.40;;;;;;;17.85;64.60;101243.88;5038427;28;20959;-51
2021/05/30 08:19:56;;;;;;;3.20;2.23;;;;;;;17.78;64.91;101245.94;5044934;28;20518;-51
2021/05/30 08:22:22;;;;;;;0.40;0.20;;;;;;;18.14;64.64;101248.84;5029123;28;21018;-51
2021/05/30 08:24:49;;;;;;;0.40;0.20;;;;;;;18.12;63.74;101241.78;5044421;28;20509;-51
2021/05/30 08:27:18;;;;;;;0.40;0.27;;;;;;;18.76;63.73;101238.84;5043687;28;20478;-51
2021/05/30 08:29:44;;;;;;;0.63;0.63;;;;;;;18.74;63.00;101240.72;5037619;28;20494;-51
2021/05/30 08:32:11;;;;;;;0.40;0.20;;;;;;;18.05;63.81;101243.84;5037725;28;21021;-51
2021/05/30 08:34:38;;;;;;;0.40;0.20;;;;;;;17.95;63.16;101245.19;5024841;28;20462;-49
2021/05/30 08:37:05;;;;;;;0.40;0.20;;;;;;;18.31;61.74;101251.63;5037658;28;20533;-50
2021/05/30 08:39:32;;;;;;;0.40;0.20;;;;;;;18.16;61.06;101238.88;5043740;28;20545;-51
2021/05/30 08:41:58;;;;;;;0.40;0.30;;;;;;;18.09;62.23;101244.56;5044127;28;20942;-51
2021/05/30 08:44:25;;;;;;;0.40;0.27;;;;;;;18.26;61.81;101240.22;5038544;28;20919;-51
2021/05/30 08:46:52;;;;;;;0.40;0.20;;;;;;;18.12;63.66;101237.28;5037695;28;20868;-51
2021/05/30 08:49:19;;;;;;;0.40;0.20;;;;;;;18.79;62.27;101227.94;5021431;28;20541;-51
2021/05/30 08:51:45;;;;;;;0.40;0.20;;;;;;;18.82;61.25;101233.16;5044512;28;20548;-51
2021/05/30 08:54:14;;;;;;;0.40;0.20;;;;;;;18.80;59.37;101235.94;5039116;28;20965;-50
2021/05/30 08:56:42;;;;;;;2.97;0.70;;;;;;;18.30;60.92;101236.44;5029037;28;20459;-50
2021/05/30 08:59:30;;;;;;;0.50;0.50;;;;;;;18.60;60.03;101233.25;5039376;28;20540;-51
2021/05/30 09:02:10;;;;;;;0.40;0.20;;;;;;;18.77;58.08;101224.41;5037595;28;20451;-51
2021/05/30 09:04:42;;;;;;;0.40;0.30;;;;;;;19.00;58.73;101231.41;5038274;28;20447;-50
2021/05/30 09:07:09;;;;;;;0.40;0.20;;;;;;;18.84;55.17;101213.28;5038413;28;20511;-51
2021/05/30 09:09:40;;;;;;;0.53;0.53;;;;;;;18.73;57.09;101217.44;5037439;28;20960;-51
2021/05/30 09:12:34;;;;;;;0.40;0.20;;;;;;;19.44;57.46;101218.41;5042570;28;20443;-51
2021/05/30 09:15:03;;;;;;;0.40;0.30;;;;;;;19.39;57.54;101224.06;5044313;28;20513;-51
2021/05/30 09:17:32;;;;;;;0.67;0.67;;;;;;;19.46;57.13;101220.13;5035304;28;20445;-52
2021/05/30 09:20:00;;;;;;;0.40;0.30;;;;;;;19.55;57.14;101220.63;5035406;28;20471;-51
2021/05/30 09:22:36;;;;;;;1.47;1.47;;;;;;;19.55;56.75;101221.47;5042379;28;20451;-51
2021/05/30 09:25:19;;;;;;;0.40;0.20;;;;;;;20.17;54.98;101217.34;5041292;28;20952;-51
2021/05/30 09:27:57;;;;;;;0.50;0.47;;;;;;;19.88;53.15;101216.19;5040682;28;20445;-51
2021/05/30 09:30:25;;;;;;;0.50;0.30;;;;;;;20.03;53.00;101217.22;5042982;28;20557;-51
2021/05/30 09:32:52;;;;;;;0.80;0.80;;;;;;;19.98;52.73;101217.44;5047347;28;20448;-51
2021/05/30 09:35:20;;;;;;;0.40;0.20;;;;;;;19.61;52.63;101218.50;5046069;28;20451;-51
2021/05/30 09:38:02;;;;;;;0.40;0.20;;;;;;;19.74;53.48;101213.34;5040428;28;20455;-51
2021/05/30 09:40:38;;;;;;;0.50;0.30;;;;;;;20.50;53.08;101206.56;5041050;28;20447;-51
2021/05/30 09:43:16;;;;;;;0.40;0.20;;;;;;;20.13;52.37;101203.13;5045461;28;20459;-51
2021/05/30 09:45:58;;;;;;;0.40;0.20;;;;;;;20.30;46.46;101202.22;5047691;28;20444;-51
2021/05/30 09:48:25;;;;;;;0.40;0.20;;;;;;;19.98;51.43;101216.56;5023410;28;20481;-50
2021/05/30 09:51:06;;;;;;;0.40;0.20;;;;;;;20.21;50.86;101201.84;5041838;28;20513;-50
2021/05/30 09:53:41;;;;;;;0.40;0.30;;;;;;;20.74;49.97;101195.34;5040452;28;20444;-50
2021/05/30 09:56:43;;;;;;;0.40;0.20;;;;;;;19.92;48.82;101203.41;5038921;28;20574;-51
2021/05/30 09:59:13;;;;;;;0.80;0.80;;;;;;;20.50;48.13;101192.19;5031448;28;20614;-51
2021/05/30 10:01:58;;;;;;;0.40;0.20;;;;;;;20.65;48.28;101191.31;5039903;28;20458;-51
2021/05/30 10:04:33;;;;;;;0.40;0.20;;;;;;;20.73;47.77;101197.19;5041363;28;20948;-51
2021/05/30 10:07:02;;;;;;;0.40;0.30;;;;;;;20.39;45.05;101196.31;5045303;28;20454;-51
2021/05/30 10:09:29;;;;;;;0.40;0.20;;;;;;;20.65;43.10;101191.31;5046482;28;20474;-51
2021/05/30 10:11:57;;;;;;;1.23;1.13;;;;;;;20.46;45.11;101188.78;5040363;28;20487;-51
2021/05/30 10:14:25;;;;;;;0.40;0.20;;;;;;;20.66;44.71;101190.38;5039414;28;20459;-51
2021/05/30 10:16:52;;;;;;;0.40;0.20;;;;;;;20.75;43.91;101181.75;5045792;28;20988;-51
2021/05/30 10:19:40;;;;;;;0.70;0.70;;;;;;;20.50;45.30;101187.66;5046463;28;20479;-51
2021/05/30 10:22:09;;;;;;;0.40;0.20;;;;;;;20.50;46.37;101178.69;5043845;28;20504;-51
2021/05/30 10:24:41;;;;;;;0.40;0.30;;;;;;;21.14;44.86;101175.03;5038754;28;20520;-52
2021/05/30 10:27:18;;;;;;;0.40;0.20;;;;;;;20.67;46.39;101174.06;5041567;28;20932;-51
2021/05/30 10:30:06;;;;;;;0.50;0.20;;;;;;;20.81;46.19;101172.41;5046134;28;20475;-51
2021/05/30 10:32:39;;;;;;;0.50;0.50;;;;;;;20.86;45.89;101173.03;5046020;28;21170;-52
2021/05/30 10:35:21;;;;;;;0.40;0.20;;;;;;;21.44;46.68;101173.25;5043182;28;20443;-51
2021/05/30 10:37:50;;;;;;;0.63;0.63;;;;;;;21.28;44.14;101167.88;5039434;28;20454;-51
2021/05/30 10:40:25;;;;;;;0.40;0.30;;;;;;;20.95;43.69;101172.50;5040198;28;20506;-51
2021/05/30 10:43:07;;;;;;;0.40;0.20;;;;;;;20.62;42.14;101169.88;5040121;28;20451;-51
2021/05/30 10:45:34;;;;;;;0.40;0.20;;;;;;;21.25;43.41;101175.31;5038770;28;20997;-51
2021/05/30 10:48:04;;;;;;;0.40;0.20;;;;;;;20.90;42.46;101163.78;5042939;28;20470;-51
2021/05/30 10:50:35;;;;;;;0.40;0.20;;;;;;;21.25;42.52;101170.75;5037277;28;20490;-52
2021/05/30 10:53:04;;;;;;;0.40;0.20;;;;;;;20.86;42.15;101176.59;5040806;28;20467;-52
2021/05/30 10:55:32;;;;;;;0.40;0.30;;;;;;;20.70;42.32;101171.22;5045614;28;20863;-52
2021/05/30 10:58:16;;;;;;;0.40;0.20;;;;;;;20.86;40.69;101165.81;5024911;28;20585;-52
2021/05/30 11:00:45;;;;;;;0.40;0.20;;;;;;;20.78;42.32;101176.16;5040236;28;20509;-52
2021/05/30 11:03:13;;;;;;;0.40;0.20;;;;;;;20.78;43.12;101169.88;5038555;28;20447;-52
2021/05/30 11:05:59;;;;;;;0.57;0.57;;;;;;;21.01;41.16;101161.34;5043064;28;20452;-51
2021/05/30 11:08:32;;;;;;;0.50;0.50;;;;;;;21.07;42.66;101163.66;5044505;28;20884;-52
2021/05/30 11:11:11;;;;;;;0.70;0.50;;;;;;;21.29;42.26;101157.91;5045595;28;20529;-51
2021/05/30 11:14:09;;;;;;;0.40;0.20;;;;;;;20.90;41.30;101151.13;5044219;28;20448;-51
2021/05/30 11:16:41;;;;;;;0.40;0.20;;;;;;;20.88;43.82;101155.78;5049978;28;20485;-51
2021/05/30 11:19:10;;;;;;;0.40;0.20;;;;;;;20.87;43.83;101154.03;5030197;28;20529;-51
2021/05/30 11:21:43;;;;;;;0.40;0.30;;;;;;;21.06;42.91;101148.41;5024325;28;20513;-52
2021/05/30 11:24:19;;;;;;;0.40;0.20;;;;;;;21.12;42.94;101147.19;5038379;28;20936;-51
2021/05/30 11:26:55;;;;;;;0.40;0.20;;;;;;;21.15;41.39;101139.78;5042829;28;20510;-51
2021/05/30 11:29:23;;;;;;;0.50;0.30;;;;;;;21.43;43.79;101157.09;5044988;28;20471;-51
2021/05/30 11:31:55;;;;;;;0.40;0.30;;;;;;;21.34;43.41;101138.69;5042571;28;20568;-51
2021/05/30 11:34:29;;;;;;;0.50;0.50;;;;;;;21.56;45.29;101136.47;5037897;28;20454;-51
2021/05/30 11:37:12;;;;;;;0.40;0.20;;;;;;;21.28;43.69;101145.38;5039207;28;20448;-51